createdAt,value
2018-11-21T00:02:27.914Z,97536.20
2018-11-21T00:04:56.079Z,97547.66
2018-11-21T00:07:24.257Z,97546.58
2018-11-21T00:09:52.469Z,97550.30
2018-11-21T00:12:20.761Z,97550.31
2018-11-21T00:14:48.978Z,97553.26
2018-11-21T00:17:17.206Z,97557.23
2018-11-21T00:19:45.431Z,97561.25
2018-11-21T00:22:13.681Z,97557.52
2018-11-21T00:24:41.882Z,97560.99
2018-11-21T00:27:10.054Z,97561.79
2018-11-21T00:29:38.195Z,97561.26
2018-11-21T00:32:10.613Z,97563.64
2018-11-21T00:34:38.792Z,97562.59
2018-11-21T00:37:06.938Z,97567.37
2018-11-21T00:39:35.105Z,97574.83
2018-11-21T00:42:03.280Z,97575.09
2018-11-21T00:44:31.426Z,97577.52
2018-11-21T00:46:59.595Z,97574.03
2018-11-21T00:49:28.213Z,97583.09
2018-11-21T00:51:56.370Z,97577.50
2018-11-21T00:54:24.523Z,97581.23
2018-11-21T00:56:52.688Z,97574.03
2018-11-21T00:59:20.936Z,97582.03
2018-11-21T01:01:49.498Z,97572.17
2018-11-21T01:04:17.673Z,97593.77
2018-11-21T01:06:46.140Z,97574.57
2018-11-21T01:09:14.297Z,97578.84
2018-11-21T01:11:42.483Z,97578.84
2018-11-21T01:14:11.231Z,97579.91
2018-11-21T01:16:39.423Z,97577.77
2018-11-21T01:19:07.603Z,97579.64
2018-11-21T01:21:35.760Z,97572.17
2018-11-21T01:24:03.949Z,97568.67
2018-11-21T01:26:32.280Z,97568.67
2018-11-21T01:29:00.472Z,97570.80
2018-11-21T01:31:28.818Z,97574.80
2018-11-21T01:33:57.819Z,97577.73
2018-11-21T01:36:25.999Z,97577.73
2018-11-21T01:38:54.186Z,97588.39
2018-11-21T01:41:22.414Z,97578.53
2018-11-21T01:43:50.566Z,97592.39
2018-11-21T01:46:18.730Z,97587.86
2018-11-21T01:48:46.910Z,97587.86
2018-11-21T01:51:15.065Z,97594.52
2018-11-21T01:53:43.232Z,97582.83
2018-11-21T01:56:11.696Z,97578.04
2018-11-21T01:58:39.847Z,97585.50
2018-11-21T02:01:08.339Z,97589.77
2018-11-21T02:03:36.821Z,97587.37
2018-11-21T02:06:05.659Z,97584.97
2018-11-21T02:08:33.985Z,97581.20
2018-11-21T02:11:02.197Z,97578.84
2018-11-21T02:13:30.360Z,97574.30
2018-11-21T02:15:58.607Z,97578.30
2018-11-21T02:18:27.363Z,97579.91
2018-11-21T02:20:55.517Z,97576.67
2018-11-21T02:23:23.681Z,97570.02
2018-11-21T02:25:51.859Z,97569.48
2018-11-21T02:28:20.015Z,97567.08
2018-11-21T02:30:48.201Z,97570.27
2018-11-21T02:33:16.732Z,97560.95
2018-11-21T02:35:44.907Z,97567.88
2018-11-21T02:38:13.068Z,97560.41
2018-11-21T02:40:41.314Z,97564.41
2018-11-21T02:43:09.562Z,97560.15
2018-11-21T02:45:37.698Z,97570.80
2018-11-21T02:48:06.020Z,97571.33
2018-11-21T02:50:34.183Z,97568.41
2018-11-21T02:53:02.390Z,97565.47
2018-11-21T02:55:30.733Z,97571.06
2018-11-21T02:57:58.883Z,97560.94
2018-11-21T03:00:28.133Z,97570.80
2018-11-21T03:02:56.306Z,97568.94
2018-11-21T03:05:24.480Z,97566.80
2018-11-21T03:07:56.930Z,97568.14
2018-11-21T03:10:25.705Z,97569.51
2018-11-21T03:12:54.071Z,97574.57
2018-11-21T03:15:22.238Z,97580.44
2018-11-21T03:17:50.429Z,97594.30
2018-11-21T03:20:18.795Z,97586.59
2018-11-21T03:22:47.171Z,97587.12
2018-11-21T03:25:15.371Z,97574.59
2018-11-21T03:27:43.561Z,97579.39
2018-11-21T03:30:12.813Z,97587.12
2018-11-21T03:32:41.623Z,97582.05
2018-11-21T03:35:09.881Z,97577.52
2018-11-21T03:37:38.136Z,97583.91
2018-11-21T03:40:09.062Z,97588.69
2018-11-21T03:42:37.476Z,97590.84
2018-11-21T03:45:07.645Z,97591.36
2018-11-21T03:47:35.844Z,97589.73
2018-11-21T03:50:04.788Z,97595.05
2018-11-21T03:52:32.925Z,97598.23
2018-11-21T03:55:01.106Z,97601.19
2018-11-21T03:57:29.371Z,97607.05
2018-11-21T03:59:57.522Z,97602.50
2018-11-21T04:02:25.695Z,97613.70
2018-11-21T04:04:53.919Z,97615.05
2018-11-21T04:07:22.205Z,97619.58
2018-11-21T04:09:50.304Z,97618.77
2018-11-21T04:12:18.490Z,97623.29
2018-11-21T04:14:46.643Z,97629.67
2018-11-21T04:17:14.831Z,97632.59
2018-11-21T04:19:43.622Z,97633.94
2018-11-21T04:22:12.123Z,97631.01
2018-11-21T04:24:40.340Z,97633.94
2018-11-21T04:27:08.488Z,97645.13
2018-11-21T04:29:36.657Z,97640.58
2018-11-21T04:32:05.102Z,97638.97
2018-11-21T04:34:33.669Z,97649.39
2018-11-21T04:37:01.847Z,97659.00
2018-11-21T04:39:30.053Z,97659.52
2018-11-21T04:41:58.233Z,97659.22
2018-11-21T04:44:26.438Z,97657.08
2018-11-21T04:46:54.596Z,97657.06
2018-11-21T04:49:22.753Z,97660.51
2018-11-21T04:51:50.901Z,97654.59
2018-11-21T04:54:19.516Z,97649.47
2018-11-21T04:56:47.692Z,97652.39
2018-11-21T04:59:15.856Z,97652.92
2018-11-21T05:01:44.044Z,97661.19
2018-11-21T05:04:12.610Z,97655.85
2018-11-21T05:06:40.756Z,97645.92
2018-11-21T05:09:10.534Z,97649.67
2018-11-21T05:11:38.684Z,97649.67
2018-11-21T05:14:07.178Z,97658.72
2018-11-21T05:16:35.348Z,97661.64
2018-11-21T05:19:03.509Z,97665.15
2018-11-21T05:21:31.663Z,97666.17
2018-11-21T05:23:59.936Z,97662.14
2018-11-21T05:26:28.098Z,97668.24
2018-11-21T05:28:56.285Z,97670.39
2018-11-21T05:31:24.477Z,97664.23
2018-11-21T05:33:52.647Z,97673.07
2018-11-21T05:36:20.931Z,97678.71
2018-11-21T05:38:49.113Z,97684.55
2018-11-21T05:41:17.267Z,97693.04
2018-11-21T05:43:45.413Z,97694.90
2018-11-21T05:46:13.578Z,97700.41
2018-11-21T05:48:41.733Z,97693.16
2018-11-21T05:51:09.888Z,97695.31
2018-11-21T05:53:38.087Z,97704.38
2018-11-21T05:56:06.245Z,97697.67
2018-11-21T05:58:34.397Z,97698.75
2018-11-21T06:01:02.960Z,97704.36
2018-11-21T06:03:31.122Z,97700.63
2018-11-21T06:05:59.285Z,97695.55
2018-11-21T06:08:27.460Z,97698.25
2018-11-21T06:10:55.942Z,97692.08
2018-11-21T06:13:24.101Z,97695.59
2018-11-21T06:15:52.282Z,97689.48
2018-11-21T06:18:20.471Z,97693.81
2018-11-21T06:20:48.626Z,97696.49
2018-11-21T06:23:16.809Z,97697.57
2018-11-21T06:25:44.990Z,97705.59
2018-11-21T06:28:13.192Z,97712.88
2018-11-21T06:30:41.737Z,97714.73
2018-11-21T06:33:09.942Z,97718.23
2018-11-21T06:35:38.150Z,97717.41
2018-11-21T06:38:06.407Z,97715.78
2018-11-21T06:40:34.655Z,97716.25
2018-11-21T06:43:02.831Z,97721.34
2018-11-21T06:45:31.015Z,97717.56
2018-11-21T06:47:59.161Z,97720.48
2018-11-21T06:50:27.324Z,97725.03
2018-11-21T06:52:56.945Z,97730.36
2018-11-21T06:55:25.095Z,97733.54
2018-11-21T06:57:53.259Z,97730.52
2018-11-21T07:00:21.467Z,97736.09
2018-11-21T07:02:49.612Z,97746.52
2018-11-21T07:05:17.759Z,97745.37
2018-11-21T07:07:45.937Z,97750.14
2018-11-21T07:10:14.993Z,97749.75
2018-11-21T07:12:43.798Z,97752.39
2018-11-21T07:15:11.952Z,97759.60
2018-11-21T07:17:40.103Z,97751.98
2018-11-21T07:20:12.494Z,97751.41
2018-11-21T07:22:41.018Z,97751.59
2018-11-21T07:25:16.020Z,97752.91
2018-11-21T07:27:44.296Z,97763.36
2018-11-21T07:30:13.910Z,97760.09
2018-11-21T07:32:42.064Z,97746.53
2018-11-21T07:35:10.759Z,97753.11
2018-11-21T07:37:40.093Z,97745.52
2018-11-21T07:40:09.859Z,97747.75
2018-11-21T07:42:38.023Z,97749.30
2018-11-21T07:45:08.715Z,97751.66
2018-11-21T07:47:37.055Z,97756.86
2018-11-21T07:50:20.195Z,97756.86
2018-11-21T07:52:48.353Z,97753.46
2018-11-21T07:55:16.491Z,97758.45
2018-11-21T07:57:52.601Z,97760.74
2018-11-21T08:01:00.312Z,97769.77
2018-11-21T08:03:30.381Z,97762.73
2018-11-21T08:06:19.184Z,97767.23
2018-11-21T08:09:15.170Z,97763.20
2018-11-21T08:12:01.052Z,97767.64
2018-11-21T08:14:42.367Z,97769.63
2018-11-21T08:17:29.630Z,97775.66
2018-11-21T08:20:15.689Z,97777.67
2018-11-21T08:23:05.866Z,97776.92
2018-11-21T08:25:51.924Z,97777.61
2018-11-21T08:28:28.008Z,97784.23
2018-11-21T08:30:56.162Z,97776.80
2018-11-21T08:33:24.330Z,97783.34
2018-11-21T08:35:52.478Z,97782.98
2018-11-21T08:38:20.630Z,97782.22
2018-11-21T08:40:48.804Z,97785.08
2018-11-21T08:43:16.967Z,97783.36
2018-11-21T08:45:45.325Z,97783.44
2018-11-21T08:48:14.239Z,97787.39
2018-11-21T08:50:42.386Z,97786.75
2018-11-21T08:53:10.539Z,97780.28
2018-11-21T08:55:39.093Z,97787.75
2018-11-21T08:58:07.926Z,97782.12
2018-11-21T09:00:36.163Z,97782.55
2018-11-21T09:03:05.012Z,97782.53
2018-11-21T09:05:33.189Z,97786.20
2018-11-21T09:08:01.331Z,97784.72
2018-11-21T09:12:57.174Z,97790.76
2018-11-21T09:15:25.311Z,97795.50
2018-11-21T09:17:53.480Z,97799.98
2018-11-21T09:20:21.637Z,97805.05
2018-11-21T09:22:49.799Z,97801.33
2018-11-21T09:25:17.970Z,97800.67
2018-11-21T09:27:46.112Z,97792.14
2018-11-21T09:30:15.818Z,97793.14
2018-11-21T09:32:44.668Z,97797.98
2018-11-21T09:35:14.349Z,97797.09
2018-11-21T09:37:42.479Z,97793.49
2018-11-21T09:40:12.417Z,97787.42
2018-11-21T09:42:41.448Z,97793.20
2018-11-21T09:45:11.438Z,97806.83
2018-11-21T09:47:39.477Z,97794.26
2018-11-21T09:50:10.227Z,97792.61
2018-11-21T09:52:38.376Z,97789.21
2018-11-21T09:55:06.789Z,97792.95
2018-11-21T09:57:35.346Z,97792.27
2018-11-21T10:00:22.899Z,97790.95
2018-11-21T10:03:11.231Z,97787.30
2018-11-21T10:05:39.427Z,97796.31
2018-11-21T10:08:36.159Z,97790.30
2018-11-21T10:11:04.328Z,97784.55
2018-11-21T10:13:32.798Z,97783.16
2018-11-21T10:16:01.587Z,97784.68
2018-11-21T10:18:29.745Z,97795.67
2018-11-21T10:20:57.904Z,97791.69
2018-11-21T10:23:26.048Z,97791.00
2018-11-21T10:25:54.216Z,97797.36
2018-11-21T10:28:22.713Z,97794.61
2018-11-21T10:30:50.884Z,97792.84
2018-11-21T10:33:19.046Z,97794.12
2018-11-21T10:35:47.200Z,97794.80
2018-11-21T10:38:15.350Z,97796.88
2018-11-21T10:40:43.522Z,97793.63
2018-11-21T10:43:11.666Z,97788.05
2018-11-21T10:45:39.829Z,97786.72
2018-11-21T10:48:07.988Z,97783.72
2018-11-21T10:50:36.151Z,97793.56
2018-11-21T10:53:04.655Z,97782.84
2018-11-21T10:55:32.801Z,97788.88
2018-11-21T10:58:01.567Z,97792.34
2018-11-21T11:00:47.663Z,97788.38
2018-11-21T11:03:20.369Z,97795.66
2018-11-21T11:06:04.401Z,97795.63
2018-11-21T11:09:00.675Z,97793.55
2018-11-21T11:11:53.898Z,97786.01
2018-11-21T11:14:39.974Z,97784.85
2018-11-21T11:17:19.419Z,97791.30
2018-11-21T11:20:19.012Z,97791.75
2018-11-21T11:23:04.917Z,97782.67
2018-11-21T11:26:10.267Z,97774.02
2018-11-21T11:28:56.574Z,97777.45
2018-11-21T11:31:46.556Z,97772.19
2018-11-21T11:34:21.192Z,97772.91
2018-11-21T11:37:23.938Z,97770.42
2018-11-21T11:40:09.981Z,97774.09
2018-11-21T11:42:55.853Z,97767.34
2018-11-21T11:45:45.300Z,97778.16
2018-11-21T11:48:44.521Z,97777.44
2018-11-21T11:51:30.276Z,97776.10
2018-11-21T11:54:20.468Z,97775.38
2018-11-21T11:57:16.901Z,97779.00
2018-11-21T12:00:00.243Z,97775.78
2018-11-21T12:03:02.760Z,97774.51
2018-11-21T12:05:53.015Z,97778.13
2018-11-21T12:08:55.629Z,97775.10
2018-11-21T12:11:41.785Z,97774.34
2018-11-21T12:14:32.137Z,97779.67
2018-11-21T12:17:18.438Z,97781.94
2018-11-21T12:20:24.079Z,97785.59
2018-11-21T12:23:14.078Z,97776.37
2018-11-21T12:26:00.482Z,97783.05
2018-11-21T12:28:53.737Z,97775.89
2018-11-21T12:31:32.608Z,97777.64
2018-11-21T12:34:28.690Z,97768.82
2018-11-21T12:37:14.818Z,97768.66
2018-11-21T12:40:00.670Z,97763.26
2018-11-21T12:42:50.679Z,97765.45
2018-11-21T12:45:44.460Z,97773.35
2018-11-21T12:48:30.415Z,97766.91
2018-11-21T12:51:32.907Z,97763.73
2018-11-21T12:54:20.207Z,97755.49
2018-11-21T12:56:58.459Z,97764.39
2018-11-21T12:59:48.735Z,97762.23
2018-11-21T13:02:36.000Z,97763.09
2018-11-21T13:05:24.969Z,97769.70
2018-11-21T13:08:17.176Z,97762.22
2018-11-21T13:11:03.171Z,97756.94
2018-11-21T13:13:53.177Z,97762.30
2018-11-21T13:16:39.478Z,97747.40
2018-11-21T13:19:26.768Z,97750.77
2018-11-21T13:22:13.094Z,97746.98
2018-11-21T13:25:12.676Z,97749.09
2018-11-21T13:28:18.303Z,97754.29
2018-11-21T13:31:04.290Z,97749.61
2018-11-21T13:33:51.599Z,97755.10
2018-11-21T13:36:50.934Z,97750.30
2018-11-21T13:39:47.322Z,97755.55
2018-11-21T13:42:38.093Z,97757.39
2018-11-21T13:45:31.050Z,97758.98
2018-11-21T13:48:27.433Z,97755.30
2018-11-21T13:51:14.702Z,97760.74
2018-11-21T13:54:15.350Z,97762.71
2018-11-21T13:56:43.639Z,97758.70
2018-11-21T13:59:11.751Z,97769.64
2018-11-21T14:01:39.907Z,97773.45
2018-11-21T14:04:08.079Z,97780.66
2018-11-21T14:06:36.223Z,97785.34
2018-11-21T14:09:06.789Z,97782.55
2018-11-21T14:11:34.939Z,97785.70
2018-11-21T14:14:03.091Z,97783.73
2018-11-21T14:16:31.243Z,97792.05
2018-11-21T14:18:59.509Z,97800.20
2018-11-21T14:21:27.985Z,97798.39
2018-11-21T14:23:56.157Z,97809.95
2018-11-21T14:26:24.382Z,97801.02
2018-11-21T14:28:52.512Z,97807.16
2018-11-21T14:31:20.669Z,97814.04
2018-11-21T14:33:48.820Z,97812.51
2018-11-21T14:36:16.962Z,97819.55
2018-11-21T14:38:45.116Z,97825.97
2018-11-21T14:41:13.299Z,97830.06
2018-11-21T14:43:41.488Z,97825.67
2018-11-21T14:46:10.356Z,97827.22
2018-11-21T14:48:38.775Z,97827.13
2018-11-21T14:51:06.956Z,97830.37
2018-11-21T14:53:35.096Z,97839.08
2018-11-21T14:56:03.295Z,97839.66
2018-11-21T14:58:31.480Z,97842.02
2018-11-21T15:00:59.643Z,97837.39
2018-11-21T15:03:28.146Z,97849.28
2018-11-21T15:05:56.340Z,97851.93
2018-11-21T15:08:24.492Z,97852.78
2018-11-21T15:10:52.647Z,97860.41
2018-11-21T15:13:20.801Z,97860.58
2018-11-21T15:15:48.949Z,97867.90
2018-11-21T15:18:17.103Z,97862.86
2018-11-21T15:20:45.267Z,97874.69
2018-11-21T15:23:13.531Z,97875.71
2018-11-21T15:25:41.743Z,97870.19
2018-11-21T15:28:09.879Z,97875.61
2018-11-21T15:30:38.063Z,97869.23
2018-11-21T15:33:06.455Z,97879.02
2018-11-21T15:35:34.645Z,97883.27
2018-11-21T15:38:02.822Z,97883.27
2018-11-21T15:40:30.988Z,97885.95
2018-11-21T15:42:59.174Z,97881.42
2018-11-21T15:45:27.858Z,97898.19
2018-11-21T15:47:57.736Z,97904.63
2018-11-21T15:50:26.624Z,97897.55
2018-11-21T15:52:54.786Z,97903.53
2018-11-21T15:55:23.215Z,97899.91
2018-11-21T15:57:51.368Z,97897.72
2018-11-21T16:00:22.346Z,97900.67
2018-11-21T16:02:51.931Z,97901.84
2018-11-21T16:05:20.173Z,97898.31
2018-11-21T16:07:48.624Z,97903.23
2018-11-21T16:10:19.051Z,97903.98
2018-11-21T16:12:46.828Z,97911.38
2018-11-21T16:15:17.902Z,97909.83
2018-11-21T16:17:46.097Z,97912.18
2018-11-21T16:20:15.380Z,97914.91
2018-11-21T16:22:43.615Z,97926.87
2018-11-21T16:25:14.873Z,97923.72
2018-11-21T16:27:43.803Z,97927.89
2018-11-21T16:30:14.159Z,97937.09
2018-11-21T16:32:42.836Z,97931.75
2018-11-21T16:35:11.385Z,97936.67
2018-11-21T16:37:40.337Z,97942.89
2018-11-21T16:40:14.039Z,97942.59
2018-11-21T16:42:42.381Z,97943.02
2018-11-21T16:45:12.602Z,97947.95
2018-11-21T16:47:40.787Z,97948.61
2018-11-21T16:50:11.356Z,97954.55
2018-11-21T16:52:39.797Z,97952.80
2018-11-21T16:55:09.580Z,97955.89
2018-11-21T16:57:37.735Z,97960.08
2018-11-21T17:00:08.986Z,97955.23
2018-11-21T17:02:37.179Z,97963.22
2018-11-21T17:05:07.205Z,97962.03
2018-11-21T17:07:35.760Z,97964.06
2018-11-21T17:10:04.312Z,97965.20
2018-11-21T17:12:32.478Z,97966.73
2018-11-21T17:15:00.690Z,97966.31
2018-11-21T17:17:28.883Z,97969.27
2018-11-21T17:19:57.855Z,97971.98
2018-11-21T17:22:26.191Z,97974.27
2018-11-21T17:24:54.218Z,97969.70
2018-11-21T17:27:22.387Z,97977.23
2018-11-21T17:29:53.979Z,97973.67
2018-11-21T17:32:18.851Z,97970.19
2018-11-21T17:34:47.036Z,97966.53
2018-11-21T17:37:15.301Z,97981.28
2018-11-21T17:39:43.755Z,97982.08
2018-11-21T17:42:11.929Z,97981.91
2018-11-21T17:44:40.083Z,97986.29
2018-11-21T17:47:08.289Z,97981.95
2018-11-21T17:49:36.772Z,97982.71
2018-11-21T17:52:05.057Z,97978.17
2018-11-21T17:54:33.278Z,97987.17
2018-11-21T17:57:01.453Z,97981.75
2018-11-21T17:59:29.651Z,97983.59
2018-11-21T18:02:01.809Z,97983.01
2018-11-21T18:04:30.855Z,97980.31
2018-11-21T18:06:59.064Z,97993.77
2018-11-21T18:09:27.224Z,97999.16
2018-11-21T18:11:55.380Z,97998.10
2018-11-21T18:14:23.580Z,98001.59
2018-11-21T18:16:51.753Z,98004.81
2018-11-21T18:19:19.928Z,97998.67
2018-11-21T18:21:48.153Z,98003.35
2018-11-21T18:24:16.344Z,98007.89
2018-11-21T18:26:44.576Z,98008.05
2018-11-21T18:29:13.148Z,98005.98
2018-11-21T18:31:41.323Z,97998.20
2018-11-21T18:34:09.713Z,98003.04
2018-11-21T18:36:38.139Z,98008.27
2018-11-21T18:39:08.897Z,98006.96
2018-11-21T18:41:37.089Z,98009.48
2018-11-21T18:44:05.299Z,98016.70
2018-11-21T18:46:33.490Z,98021.03
2018-11-21T18:49:01.985Z,98016.34
2018-11-21T18:51:30.213Z,98015.21
2018-11-21T18:53:58.396Z,98017.02
2018-11-21T18:56:33.664Z,98017.60
2018-11-21T18:59:37.719Z,98019.16
2018-11-21T19:02:06.136Z,98031.87
2018-11-21T19:04:34.304Z,98026.06
2018-11-21T19:07:02.484Z,98028.25
2018-11-21T19:09:30.642Z,98033.89
2018-11-21T19:11:58.838Z,98035.21
2018-11-21T19:14:27.007Z,98042.21
2018-11-21T19:16:55.162Z,98048.56
2018-11-21T19:19:23.346Z,98046.26
2018-11-21T19:21:51.550Z,98048.82
2018-11-21T19:24:19.703Z,98047.22
2018-11-21T19:26:47.850Z,98044.48
2018-11-21T19:29:16.026Z,98051.77
2018-11-21T19:31:44.189Z,98050.53
2018-11-21T19:34:12.719Z,98053.64
2018-11-21T19:36:41.310Z,98049.89
2018-11-21T19:39:12.351Z,98048.41
2018-11-21T19:41:40.897Z,98052.74
2018-11-21T19:44:09.065Z,98053.00
2018-11-21T19:46:37.523Z,98056.15
